KARA/ARA METAR and TAF weather

Enter ICAO airport designator
Station Type Date Time Source
KARA METAR 2019/06/18 16:53 UTC NOAA

KARA 181653Z 27008KT 10SM FEW032 30/23 A2995 RMK AO2 SLP141 T03000228


Station Type Date Time Source
KARA Decoded METAR 2019/06/18 16:53 UTC NOAA

NEW IBERIA ACADIANA REGIONAL, LA, United States (KARA) 30-02N 091-53W 18M
Jun 18, 2019 - 12:53 PM EDT / 2019.06.18 1653 UTC
Wind: from the W (270 degrees) at 9 MPH (8 KT):0
Visibility: 10 mile(s):0
Sky conditions: mostly clear
Temperature: 86.0 F (30.0 C)
Heat index: 93.0 F (33.9 C):1
Dew Point: 73.0 F (22.8 C)
Relative Humidity: 65%
Pressure (altimeter): 29.95 in. Hg (1014 hPa)
ob: KARA 181653Z 27008KT 10SM FEW032 30/23 A2995 RMK AO2 SLP141 T03000228
cycle: 17

Station Type Date Time Source
KARA TAF 2019/06/18 16:15 UTC NOAA

TAF KARA 181613Z 1816/1912 26008KT P6SM SCT025 BKN035
TEMPO 1817/1818 BKN025 BKN035
FM181800 23009KT P6SM VCTS SCT035CB
FM190100 21004KT P6SM SCT025
TEMPO 1909/1912 00000KT 4SM BR

Example: see airport list